createdAt,value
2022-10-31T00:02:06.096Z,20.09
2022-10-31T00:04:33.486Z,20.11
2022-10-31T00:07:06.586Z,20.11
2022-10-31T00:09:34.157Z,20.08
2022-10-31T00:12:01.577Z,20.13
2022-10-31T00:14:29.640Z,20.17
2022-10-31T00:16:57.042Z,20.13
2022-10-31T00:19:32.451Z,20.11
2022-10-31T00:21:59.981Z,20.12
2022-10-31T00:24:27.264Z,20.00
2022-10-31T00:26:54.728Z,20.01
2022-10-31T00:29:22.587Z,19.98
2022-10-31T00:31:50.385Z,19.95
2022-10-31T00:34:17.863Z,19.77
2022-10-31T00:36:45.345Z,19.75
2022-10-31T00:39:14.560Z,19.68
2022-10-31T00:41:42.211Z,19.67
2022-10-31T00:44:14.346Z,19.56
2022-10-31T00:46:42.593Z,19.46
2022-10-31T00:49:10.008Z,19.48
2022-10-31T00:51:39.847Z,19.40
2022-10-31T00:54:07.416Z,19.27
2022-10-31T00:56:35.788Z,19.33
2022-10-31T00:59:03.636Z,19.26
2022-10-31T01:01:31.027Z,19.30
2022-10-31T01:03:58.503Z,19.25
2022-10-31T01:06:28.432Z,19.26
2022-10-31T01:08:58.033Z,19.26
2022-10-31T01:11:25.556Z,19.23
2022-10-31T01:13:55.148Z,19.28
2022-10-31T01:16:28.556Z,19.25
2022-10-31T01:18:57.517Z,19.19
2022-10-31T01:21:30.932Z,19.20
2022-10-31T01:24:00.458Z,19.18
2022-10-31T01:26:35.066Z,19.10
2022-10-31T01:29:07.231Z,19.13
2022-10-31T01:31:39.444Z,19.13
2022-10-31T01:34:08.084Z,19.13
2022-10-31T01:36:39.270Z,19.22
2022-10-31T01:39:11.026Z,19.20
2022-10-31T01:41:42.051Z,19.20
2022-10-31T01:44:16.018Z,19.23
2022-10-31T01:46:54.804Z,19.21
2022-10-31T01:49:45.437Z,19.31
2022-10-31T01:52:21.718Z,19.25
2022-10-31T01:54:57.251Z,19.26
2022-10-31T01:57:26.860Z,19.20
2022-10-31T01:59:59.741Z,19.14
2022-10-31T02:02:30.021Z,19.16
2022-10-31T02:05:01.340Z,19.19
2022-10-31T02:07:35.567Z,19.19
2022-10-31T02:10:04.406Z,19.21
2022-10-31T02:12:34.333Z,19.10
2022-10-31T02:15:02.185Z,19.12
2022-10-31T02:17:35.595Z,19.09
2022-10-31T02:20:22.636Z,19.15
2022-10-31T02:23:31.775Z,19.09
2022-10-31T02:26:22.831Z,19.04
2022-10-31T02:29:17.446Z,18.90
2022-10-31T02:31:57.962Z,18.93
2022-10-31T02:34:57.783Z,18.94
2022-10-31T02:37:40.236Z,18.85
2022-10-31T02:40:30.174Z,18.82
2022-10-31T02:43:42.369Z,18.70
2022-10-31T02:49:47.085Z,18.69
2022-10-31T02:52:27.690Z,18.66
2022-10-31T02:55:12.718Z,18.71
2022-10-31T02:57:42.278Z,18.78
2022-10-31T03:00:10.887Z,18.83
2022-10-31T03:03:05.910Z,18.84
2022-10-31T03:05:58.168Z,18.82
2022-10-31T03:08:45.155Z,18.74
2022-10-31T03:11:12.807Z,18.72
2022-10-31T03:13:47.681Z,18.76
2022-10-31T03:16:25.458Z,18.79
2022-10-31T03:19:04.915Z,18.68
2022-10-31T03:21:37.010Z,18.73
2022-10-31T03:24:08.255Z,18.63
2022-10-31T03:26:53.411Z,18.65
2022-10-31T03:29:26.721Z,18.59
2022-10-31T03:32:03.224Z,18.58
2022-10-31T03:34:32.356Z,18.58
2022-10-31T03:37:06.597Z,18.59
2022-10-31T03:39:36.028Z,18.48
2022-10-31T03:42:09.167Z,18.49
2022-10-31T03:44:39.231Z,18.47
2022-10-31T03:47:06.976Z,18.42
2022-10-31T03:49:36.615Z,18.40
2022-10-31T03:52:10.663Z,18.44
2022-10-31T03:54:45.279Z,18.48
2022-10-31T03:57:31.715Z,18.46
2022-10-31T04:00:05.352Z,18.47
2022-10-31T04:02:39.547Z,18.40
2022-10-31T04:05:09.380Z,18.37
2022-10-31T04:07:43.006Z,18.34
2022-10-31T04:10:14.700Z,18.19
2022-10-31T04:12:48.837Z,18.31
2022-10-31T04:15:27.694Z,18.34
2022-10-31T04:17:59.432Z,18.32
2022-10-31T04:20:37.218Z,18.37
2022-10-31T04:23:08.925Z,18.23
2022-10-31T04:25:43.431Z,18.19
2022-10-31T04:28:13.069Z,18.21
2022-10-31T04:30:41.858Z,18.16
2022-10-31T04:33:10.564Z,18.17
2022-10-31T04:35:38.826Z,18.16
2022-10-31T04:38:06.523Z,18.12
2022-10-31T04:40:34.611Z,18.16
2022-10-31T04:43:21.568Z,18.02
2022-10-31T04:45:49.206Z,17.94
2022-10-31T04:48:21.715Z,17.94
2022-10-31T04:50:49.747Z,17.98
2022-10-31T04:53:17.279Z,17.93
2022-10-31T04:56:12.162Z,17.89
2022-10-31T04:58:44.371Z,17.97
2022-10-31T05:01:12.941Z,17.98
2022-10-31T05:03:41.118Z,18.01
2022-10-31T05:06:09.320Z,18.02
2022-10-31T05:08:40.870Z,18.04
2022-10-31T05:11:09.843Z,17.90
2022-10-31T05:13:38.344Z,17.92
2022-10-31T05:16:14.629Z,17.88
2022-10-31T05:19:01.006Z,17.97
2022-10-31T05:22:03.830Z,17.93
2022-10-31T05:24:33.268Z,17.84
2022-10-31T05:27:00.894Z,17.94
2022-10-31T05:29:28.327Z,17.97
2022-10-31T05:31:55.732Z,17.94
2022-10-31T05:34:46.512Z,17.85
2022-10-31T05:37:43.479Z,17.83
2022-10-31T05:40:13.629Z,17.84
2022-10-31T05:42:41.996Z,17.84
2022-10-31T05:45:17.730Z,17.87
2022-10-31T05:47:55.572Z,17.80
2022-10-31T05:50:52.277Z,17.79
2022-10-31T05:53:19.951Z,17.81
2022-10-31T05:55:48.626Z,17.74
2022-10-31T05:58:20.170Z,17.69
2022-10-31T06:00:58.942Z,17.74
2022-10-31T06:03:26.523Z,17.67
2022-10-31T06:05:56.930Z,17.68
2022-10-31T06:08:29.783Z,17.67
2022-10-31T06:11:00.439Z,17.54
2022-10-31T06:13:47.583Z,17.66
2022-10-31T06:16:23.692Z,17.68
2022-10-31T06:19:04.183Z,17.56
2022-10-31T06:21:31.963Z,17.62
2022-10-31T06:23:59.401Z,17.67
2022-10-31T06:26:46.922Z,17.70
2022-10-31T06:29:14.415Z,17.67
2022-10-31T06:32:02.011Z,17.64
2022-10-31T06:34:31.104Z,17.68
2022-10-31T06:36:58.920Z,17.72
2022-10-31T06:39:26.928Z,17.74
2022-10-31T06:41:54.295Z,17.77
2022-10-31T06:44:24.082Z,17.75
2022-10-31T06:47:01.018Z,17.64
2022-10-31T06:49:48.604Z,17.66
2022-10-31T06:52:24.685Z,17.72
2022-10-31T06:54:53.906Z,17.80
2022-10-31T06:57:22.504Z,17.85
2022-10-31T06:59:50.502Z,17.94
2022-10-31T07:02:43.699Z,17.97
2022-10-31T07:05:11.218Z,17.97
2022-10-31T07:07:38.701Z,18.03
2022-10-31T07:10:06.710Z,18.03
2022-10-31T07:13:00.191Z,18.07
2022-10-31T07:15:30.472Z,18.11
2022-10-31T07:18:03.960Z,18.20
2022-10-31T07:20:32.898Z,18.26
2022-10-31T07:23:01.917Z,18.30
2022-10-31T07:25:32.381Z,18.49
2022-10-31T07:28:17.876Z,18.64
2022-10-31T07:30:58.423Z,18.76
2022-10-31T07:33:29.472Z,18.90
2022-10-31T07:36:15.919Z,18.93
2022-10-31T07:38:46.177Z,18.93
2022-10-31T07:41:14.302Z,19.04
2022-10-31T07:43:44.880Z,18.97
2022-10-31T07:46:18.342Z,19.17
2022-10-31T07:49:04.306Z,19.16
2022-10-31T07:51:52.577Z,19.10
2022-10-31T07:54:23.990Z,19.17
2022-10-31T07:56:51.256Z,19.26
2022-10-31T07:59:23.613Z,19.50
2022-10-31T08:01:51.431Z,19.66
2022-10-31T08:04:37.177Z,19.76
2022-10-31T08:07:23.521Z,19.97
2022-10-31T08:09:57.952Z,19.98
2022-10-31T08:12:30.093Z,20.05
2022-10-31T08:14:58.335Z,20.15
2022-10-31T08:17:25.529Z,20.24
2022-10-31T08:19:58.982Z,20.40
2022-10-31T08:22:37.553Z,20.35
2022-10-31T08:25:07.319Z,20.46
2022-10-31T08:27:34.736Z,20.57
2022-10-31T08:30:02.363Z,20.58
2022-10-31T08:32:29.888Z,20.64
2022-10-31T08:35:16.808Z,20.74
2022-10-31T08:38:06.878Z,20.82
2022-10-31T08:40:36.537Z,20.78
2022-10-31T08:43:14.043Z,20.73
2022-10-31T08:45:42.530Z,20.77
2022-10-31T08:48:18.523Z,20.54
2022-10-31T08:50:47.330Z,20.65
2022-10-31T08:53:18.461Z,20.64
2022-10-31T08:55:50.065Z,20.63
2022-10-31T08:58:26.207Z,20.83
2022-10-31T09:01:01.271Z,20.75
2022-10-31T09:03:32.111Z,20.87
2022-10-31T09:06:04.212Z,20.95
2022-10-31T09:08:33.158Z,20.96
2022-10-31T09:11:02.471Z,20.99
2022-10-31T09:13:51.059Z,21.06
2022-10-31T09:16:38.039Z,21.07
2022-10-31T09:19:11.548Z,21.18
2022-10-31T09:21:39.345Z,21.18
2022-10-31T09:24:07.482Z,21.15
2022-10-31T09:26:35.030Z,21.42
2022-10-31T09:29:13.537Z,21.40
2022-10-31T09:31:44.778Z,21.49
2022-10-31T09:34:27.563Z,21.62
2022-10-31T09:37:04.208Z,21.70
2022-10-31T09:39:31.704Z,21.83
2022-10-31T09:42:24.029Z,21.86
2022-10-31T09:44:57.237Z,21.86
2022-10-31T09:47:40.885Z,21.94
2022-10-31T09:51:13.561Z,22.07
2022-10-31T09:54:04.917Z,22.09
2022-10-31T09:56:34.161Z,22.15
2022-10-31T09:59:04.889Z,22.21
2022-10-31T10:02:12.017Z,22.17
2022-10-31T10:04:39.724Z,22.18
2022-10-31T10:07:25.564Z,22.15
2022-10-31T10:10:37.805Z,22.18
2022-10-31T10:13:53.911Z,22.28
2022-10-31T10:16:46.139Z,22.35
2022-10-31T10:19:30.242Z,22.44
2022-10-31T10:22:16.563Z,22.49
2022-10-31T10:24:54.897Z,22.49
2022-10-31T10:27:35.646Z,22.63
2022-10-31T10:30:04.996Z,22.65
2022-10-31T10:32:42.015Z,22.70
2022-10-31T10:35:22.766Z,22.79
2022-10-31T10:37:54.665Z,22.94
2022-10-31T10:40:23.415Z,23.04
2022-10-31T10:43:23.659Z,23.03
2022-10-31T10:46:20.848Z,23.16
2022-10-31T10:49:19.476Z,23.26
2022-10-31T10:52:07.366Z,23.38
2022-10-31T10:54:39.466Z,23.50
2022-10-31T10:57:30.499Z,23.68
2022-10-31T11:00:01.767Z,23.74
2022-10-31T11:02:33.349Z,23.83
2022-10-31T11:05:02.747Z,23.91
2022-10-31T11:07:41.123Z,24.01
2022-10-31T11:10:17.882Z,23.99
2022-10-31T11:12:59.847Z,24.09
2022-10-31T11:15:28.913Z,24.15
2022-10-31T11:17:58.682Z,24.13
2022-10-31T11:20:33.435Z,24.18
2022-10-31T11:23:21.562Z,24.26
2022-10-31T11:26:07.410Z,24.35
2022-10-31T11:28:36.216Z,24.34
2022-10-31T11:31:15.255Z,24.29
2022-10-31T11:33:45.777Z,24.35
2022-10-31T11:36:33.166Z,24.42
2022-10-31T11:39:02.566Z,24.46
2022-10-31T11:41:34.272Z,24.40
2022-10-31T11:44:08.311Z,24.43
2022-10-31T11:46:49.080Z,24.35
2022-10-31T11:49:44.494Z,24.35
2022-10-31T11:52:18.983Z,24.31
2022-10-31T11:55:09.570Z,24.22
2022-10-31T11:57:57.930Z,24.30
2022-10-31T12:00:30.912Z,24.20
2022-10-31T12:03:17.064Z,24.22
2022-10-31T12:05:47.167Z,24.24
2022-10-31T12:08:15.233Z,24.24
2022-10-31T12:10:55.801Z,24.12
2022-10-31T12:13:34.119Z,24.12
2022-10-31T12:16:18.119Z,24.15
2022-10-31T12:19:03.369Z,23.97
2022-10-31T12:21:40.143Z,23.92
2022-10-31T12:24:20.644Z,23.86
2022-10-31T12:27:13.204Z,23.85
2022-10-31T12:30:05.534Z,23.84
2022-10-31T12:33:09.515Z,23.90
2022-10-31T12:35:46.697Z,23.99
2022-10-31T12:38:31.933Z,24.02
2022-10-31T12:41:17.719Z,24.08
2022-10-31T12:43:49.005Z,24.14
2022-10-31T12:47:00.985Z,24.23
2022-10-31T12:49:36.189Z,24.32
2022-10-31T12:52:41.786Z,24.30
2022-10-31T12:55:18.794Z,24.26
2022-10-31T12:57:54.211Z,24.16
2022-10-31T13:00:26.455Z,24.14
2022-10-31T13:03:03.149Z,24.08
2022-10-31T13:05:42.105Z,24.13
2022-10-31T13:08:49.789Z,24.11
2022-10-31T13:11:26.461Z,24.13
2022-10-31T13:14:13.680Z,24.17
2022-10-31T13:16:49.405Z,24.15
2022-10-31T13:19:42.598Z,24.11
2022-10-31T13:22:33.888Z,24.07
2022-10-31T13:25:13.380Z,24.03
2022-10-31T13:28:03.658Z,24.10
2022-10-31T13:30:43.277Z,24.09
2022-10-31T13:33:18.940Z,24.06
2022-10-31T13:35:55.489Z,23.99
2022-10-31T13:38:57.516Z,23.97
2022-10-31T13:41:49.787Z,23.97
2022-10-31T13:44:25.245Z,23.95
2022-10-31T13:46:53.976Z,24.01
2022-10-31T13:49:36.550Z,23.95
2022-10-31T13:52:23.517Z,23.93
2022-10-31T13:54:57.138Z,23.92
2022-10-31T13:57:36.733Z,24.05
2022-10-31T14:00:08.986Z,24.09
2022-10-31T14:02:50.708Z,24.08
2022-10-31T14:05:36.684Z,24.13
2022-10-31T14:08:07.715Z,24.20
2022-10-31T14:10:50.122Z,24.23
2022-10-31T14:13:24.247Z,24.20
2022-10-31T14:16:16.746Z,24.15
2022-10-31T14:18:50.805Z,24.16
2022-10-31T14:21:24.367Z,24.16
2022-10-31T14:23:55.000Z,24.16
2022-10-31T14:26:29.769Z,24.14
2022-10-31T14:29:20.327Z,24.12
2022-10-31T14:32:15.678Z,24.08
2022-10-31T14:34:52.955Z,24.07
2022-10-31T14:37:57.995Z,24.11
2022-10-31T14:41:06.518Z,24.16
2022-10-31T14:44:16.395Z,24.16
2022-10-31T14:47:12.736Z,24.12
2022-10-31T14:50:10.481Z,24.10
2022-10-31T14:52:40.062Z,24.08
2022-10-31T14:55:15.974Z,24.01
2022-10-31T14:57:53.042Z,24.05
2022-10-31T15:00:26.451Z,24.07
2022-10-31T15:03:20.190Z,24.10
2022-10-31T15:05:54.101Z,23.99
2022-10-31T15:08:55.884Z,23.88
2022-10-31T15:11:28.804Z,23.78
2022-10-31T15:14:03.542Z,23.68
2022-10-31T15:16:41.153Z,23.60
2022-10-31T15:19:13.241Z,23.59
2022-10-31T15:21:49.022Z,23.55
2022-10-31T15:24:19.631Z,23.49
2022-10-31T15:26:51.516Z,23.47
2022-10-31T15:29:24.756Z,23.45
2022-10-31T15:31:54.347Z,23.38
2022-10-31T15:34:43.180Z,23.34
2022-10-31T15:37:17.791Z,23.27
2022-10-31T15:39:46.972Z,23.22
2022-10-31T15:42:23.144Z,23.16
2022-10-31T15:45:02.858Z,23.18
2022-10-31T15:47:33.365Z,23.18
2022-10-31T15:50:02.192Z,23.18
2022-10-31T15:52:32.676Z,23.18
2022-10-31T15:55:19.275Z,23.16
2022-10-31T15:57:55.780Z,23.13
2022-10-31T16:00:32.663Z,23.14
2022-10-31T16:03:15.278Z,23.09
2022-10-31T16:05:52.748Z,23.10
2022-10-31T16:08:26.061Z,23.10
2022-10-31T16:11:17.241Z,23.08
2022-10-31T16:14:03.161Z,23.09
2022-10-31T16:16:35.746Z,23.05
2022-10-31T16:19:05.920Z,23.05
2022-10-31T16:21:39.518Z,23.02
2022-10-31T16:24:22.259Z,23.03
2022-10-31T16:26:52.638Z,22.97
2022-10-31T16:29:34.062Z,22.99
2022-10-31T16:32:01.999Z,22.96
2022-10-31T16:34:29.424Z,22.93
2022-10-31T16:36:57.000Z,22.89
2022-10-31T16:39:24.701Z,22.89
2022-10-31T16:41:56.180Z,22.89
2022-10-31T16:44:27.726Z,22.85
2022-10-31T16:47:11.145Z,22.81
2022-10-31T16:49:38.727Z,22.82
2022-10-31T16:52:06.484Z,22.80
2022-10-31T16:54:34.084Z,22.78
2022-10-31T16:57:03.985Z,22.74
2022-10-31T16:59:36.257Z,22.66
2022-10-31T17:02:06.128Z,22.67
2022-10-31T17:07:15.235Z,22.63
2022-10-31T17:10:16.156Z,22.65
2022-10-31T17:12:46.799Z,22.61
2022-10-31T17:15:49.710Z,22.63
2022-10-31T17:18:21.565Z,22.59
2022-10-31T17:21:06.521Z,22.57
2022-10-31T17:23:33.838Z,22.59
2022-10-31T17:26:01.535Z,22.52
2022-10-31T17:28:29.310Z,22.52
2022-10-31T17:30:59.510Z,22.51
2022-10-31T17:33:27.514Z,22.49
2022-10-31T17:35:54.755Z,22.50
2022-10-31T17:38:22.477Z,22.46
2022-10-31T17:40:49.787Z,22.45
2022-10-31T17:43:27.894Z,22.49
2022-10-31T17:45:55.807Z,22.51
2022-10-31T17:48:23.605Z,22.47
2022-10-31T17:51:01.619Z,22.48
2022-10-31T17:53:34.694Z,22.42
2022-10-31T17:56:41.373Z,22.38
2022-10-31T17:59:52.267Z,22.31
2022-10-31T18:02:55.763Z,22.33
2022-10-31T18:05:32.961Z,22.33
2022-10-31T18:08:03.986Z,22.38
2022-10-31T18:10:32.137Z,22.41
2022-10-31T18:12:59.820Z,22.43
2022-10-31T18:15:30.503Z,22.48
2022-10-31T18:17:58.260Z,22.49
2022-10-31T18:20:26.102Z,22.44
2022-10-31T18:22:55.338Z,22.42
2022-10-31T18:25:22.691Z,22.40
2022-10-31T18:27:50.188Z,22.38
2022-10-31T18:30:22.986Z,22.33
2022-10-31T18:32:53.367Z,22.33
2022-10-31T18:35:24.469Z,22.35
2022-10-31T18:37:56.939Z,22.37
2022-10-31T18:40:27.359Z,22.43
2022-10-31T18:42:55.561Z,22.48
2022-10-31T18:45:33.934Z,22.49
2022-10-31T18:48:19.856Z,22.52
2022-10-31T18:50:48.167Z,22.54
2022-10-31T18:53:18.947Z,22.54
2022-10-31T18:55:49.211Z,22.57
2022-10-31T18:58:18.513Z,22.57
2022-10-31T19:00:47.546Z,22.59
2022-10-31T19:03:15.753Z,22.63
2022-10-31T19:05:43.546Z,22.61
2022-10-31T19:08:19.935Z,22.65
2022-10-31T19:10:48.139Z,22.64
2022-10-31T19:13:17.152Z,22.64
2022-10-31T19:15:45.416Z,22.64
2022-10-31T19:18:13.188Z,22.65
2022-10-31T19:20:42.092Z,22.66
2022-10-31T19:23:18.444Z,22.67
2022-10-31T19:25:51.622Z,22.69
2022-10-31T19:28:22.024Z,22.67
2022-10-31T19:30:59.352Z,22.67
2022-10-31T19:33:34.848Z,22.67
2022-10-31T19:36:17.707Z,22.68
2022-10-31T19:38:52.117Z,22.67
2022-10-31T19:41:44.348Z,22.66
2022-10-31T19:44:21.506Z,22.67
2022-10-31T19:46:53.739Z,22.61
2022-10-31T19:49:22.873Z,22.61
2022-10-31T19:52:01.902Z,22.63
2022-10-31T19:54:42.093Z,22.59
2022-10-31T19:57:09.754Z,22.57
2022-10-31T19:59:45.874Z,22.55
2022-10-31T20:02:21.226Z,22.54
2022-10-31T20:04:49.109Z,22.54
2022-10-31T20:07:16.553Z,22.56
2022-10-31T20:09:47.177Z,22.56
2022-10-31T20:12:14.674Z,22.59
2022-10-31T20:14:42.247Z,22.59
2022-10-31T20:17:09.718Z,22.58
2022-10-31T20:19:46.532Z,22.56
2022-10-31T20:22:21.200Z,22.55
2022-10-31T20:24:48.841Z,22.56
2022-10-31T20:27:16.377Z,22.55
2022-10-31T20:29:47.631Z,22.55
2022-10-31T20:32:15.387Z,22.54
2022-10-31T20:34:42.994Z,22.55
2022-10-31T20:37:17.734Z,22.54
2022-10-31T20:39:45.289Z,22.54
2022-10-31T20:42:13.205Z,22.53
2022-10-31T20:44:40.654Z,22.55
2022-10-31T20:47:08.084Z,22.55
2022-10-31T20:49:35.551Z,22.57
2022-10-31T20:52:02.971Z,22.57
2022-10-31T20:54:30.182Z,22.56
2022-10-31T20:57:03.351Z,22.57
2022-10-31T20:59:30.995Z,22.58
2022-10-31T21:01:58.612Z,22.56
2022-10-31T21:04:26.146Z,22.57
2022-10-31T21:06:53.590Z,22.56
2022-10-31T21:09:21.245Z,22.52
2022-10-31T21:11:48.552Z,22.53
2022-10-31T21:14:16.286Z,22.53
2022-10-31T21:16:44.051Z,22.55
2022-10-31T21:19:13.229Z,22.53
2022-10-31T21:21:40.759Z,22.53
2022-10-31T21:24:13.728Z,22.54
2022-10-31T21:26:44.003Z,22.55
2022-10-31T21:29:15.007Z,22.53
2022-10-31T21:31:44.263Z,22.55
2022-10-31T21:34:18.563Z,22.54
2022-10-31T21:37:10.916Z,22.55
2022-10-31T21:39:40.639Z,22.53
2022-10-31T21:42:08.348Z,22.52
2022-10-31T21:44:35.676Z,22.51
2022-10-31T21:47:09.699Z,22.51
2022-10-31T21:49:37.701Z,22.51
2022-10-31T21:52:05.554Z,22.49
2022-10-31T21:54:35.647Z,22.49
2022-10-31T21:57:06.356Z,22.48
2022-10-31T21:59:33.652Z,22.46
2022-10-31T22:02:01.685Z,22.42
2022-10-31T22:04:36.918Z,22.38
2022-10-31T22:07:05.467Z,22.38
2022-10-31T22:09:39.240Z,22.40
2022-10-31T22:12:09.451Z,22.38
2022-10-31T22:14:37.221Z,22.39
2022-10-31T22:17:04.880Z,22.42
2022-10-31T22:19:35.490Z,22.43
2022-10-31T22:22:03.377Z,22.45
2022-10-31T22:24:30.981Z,22.47
2022-10-31T22:26:58.701Z,22.49
2022-10-31T22:29:31.899Z,22.49
2022-10-31T22:32:01.619Z,22.47
2022-10-31T22:34:29.406Z,22.49
2022-10-31T22:37:07.642Z,22.49
2022-10-31T22:39:35.220Z,22.44
2022-10-31T22:42:04.199Z,22.46
2022-10-31T22:44:32.420Z,22.47
2022-10-31T22:46:59.640Z,22.48
2022-10-31T22:49:32.128Z,22.48
2022-10-31T22:52:03.768Z,22.48
2022-10-31T22:54:31.586Z,22.49
2022-10-31T22:57:01.897Z,22.50
2022-10-31T22:59:36.023Z,22.50
2022-10-31T23:02:06.019Z,22.49
2022-10-31T23:04:35.921Z,22.50
2022-10-31T23:07:03.898Z,22.49
2022-10-31T23:09:34.029Z,22.48
2022-10-31T23:12:23.410Z,22.47
2022-10-31T23:14:50.780Z,22.45
2022-10-31T23:17:18.233Z,22.46
2022-10-31T23:19:46.461Z,22.46
2022-10-31T23:22:14.135Z,22.45
2022-10-31T23:24:43.865Z,22.47
2022-10-31T23:27:17.821Z,22.45
2022-10-31T23:29:48.474Z,22.44
2022-10-31T23:32:27.417Z,22.41
2022-10-31T23:34:57.367Z,22.42
2022-10-31T23:37:27.994Z,22.43
2022-10-31T23:39:56.479Z,22.42
2022-10-31T23:42:24.982Z,22.42
2022-10-31T23:44:52.485Z,22.41
2022-10-31T23:47:21.910Z,22.41
2022-10-31T23:49:49.366Z,22.42
2022-10-31T23:52:17.452Z,22.40
2022-10-31T23:54:44.903Z,22.40
2022-10-31T23:57:14.992Z,22.39
2022-10-31T23:59:42.369Z,22.38
